Time;durP1;ratioP1;P1;durP2;ratioP2;P2;SDS_P1;SDS_P2;PMS_P1;PMS_P2;Temp;Humidity;BMP_temperature;BMP_pressure;BME280_temperature;BME280_humidity;BME280_pressure;Samples;Min_cycle;Max_cycle;Signal;HPM_P1;HPM_P2
2023/10/07 00:00:31;;;;;;;3.70;0.90;;;12.20;1.00;;;;;;5095582;28;20426;-58
2023/10/07 00:02:59;;;;;;;2.40;1.00;;;12.10;1.00;;;;;;5095783;28;20429;-58
2023/10/07 00:05:32;;;;;;;2.58;0.90;;;12.10;1.00;;;;;;5095887;28;20418;-58
2023/10/07 00:08:01;;;;;;;2.80;0.80;;;12.10;1.00;;;;;;5096110;28;20418;-58
2023/10/07 00:10:29;;;;;;;3.80;0.90;;;12.10;1.00;;;;;;5094889;28;20429;-57
2023/10/07 00:13:00;;;;;;;1.73;0.98;;;12.10;1.00;;;;;;5094615;28;20774;-59
2023/10/07 00:15:29;;;;;;;2.60;0.90;;;12.10;1.00;;;;;;5094799;28;20444;-56
2023/10/07 00:18:10;;;;;;;2.78;1.00;;;12.10;1.00;;;;;;5093755;28;20875;-55
2023/10/07 00:20:40;;;;;;;1.95;1.00;;;12.10;1.00;;;;;;5094624;28;20786;-58
2023/10/07 00:23:09;;;;;;;2.28;1.00;;;12.10;1.00;;;;;;5095044;28;20418;-58
2023/10/07 00:25:38;;;;;;;2.58;0.80;;;12.10;1.00;;;;;;5094090;28;20461;-58
2023/10/07 00:28:17;;;;;;;2.40;0.90;;;12.10;1.00;;;;;;5095143;28;20721;-58
2023/10/07 00:30:46;;;;;;;1.70;0.90;;;12.10;1.00;;;;;;5093306;28;20425;-58
2023/10/07 00:33:14;;;;;;;1.70;0.80;;;12.00;1.00;;;;;;5094681;28;20466;-57
2023/10/07 00:35:41;;;;;;;2.45;1.00;;;12.00;1.00;;;;;;5094593;28;20457;-58
2023/10/07 00:38:14;;;;;;;2.70;0.70;;;12.00;1.00;;;;;;5094860;28;20419;-57
2023/10/07 00:40:47;;;;;;;2.25;0.90;;;12.00;1.00;;;;;;5095037;28;20425;-58
2023/10/07 00:43:30;;;;;;;2.10;0.90;;;12.00;1.00;;;;;;5094977;28;20426;-58
2023/10/07 00:46:10;;;;;;;1.80;0.80;;;12.00;1.00;;;;;;5094527;28;20426;-57
2023/10/07 00:48:47;;;;;;;1.40;0.80;;;12.00;1.00;;;;;;5092656;28;20426;-58
2023/10/07 00:51:17;;;;;;;3.00;0.90;;;12.00;1.00;;;;;;5093180;28;20417;-58
2023/10/07 00:53:53;;;;;;;1.85;0.90;;;11.90;1.00;;;;;;5091733;28;20432;-58
2023/10/07 00:56:24;;;;;;;1.50;0.90;;;11.90;1.00;;;;;;5093130;28;20418;-57
2023/10/07 00:58:53;;;;;;;2.40;0.90;;;11.90;1.00;;;;;;5093076;28;20420;-57
2023/10/07 01:01:21;;;;;;;1.80;0.90;;;11.90;1.00;;;;;;5094617;28;20731;-58
2023/10/07 01:03:49;;;;;;;2.53;0.90;;;11.90;1.00;;;;;;5094748;28;20430;-57
2023/10/07 01:06:25;;;;;;;1.33;0.80;;;11.90;1.00;;;;;;5094677;28;20422;-57
2023/10/07 01:08:58;;;;;;;1.45;0.70;;;11.80;1.00;;;;;;5095007;28;20727;-57
2023/10/07 01:11:29;;;;;;;2.28;0.70;;;11.70;1.00;;;;;;5095014;28;20472;-57
2023/10/07 01:13:59;;;;;;;3.22;0.80;;;11.60;1.00;;;;;;5095125;28;20500;-57
2023/10/07 01:19:36;;;;;;;2.65;0.80;;;11.70;1.00;;;;;;5090547;28;20414;-57
2023/10/07 01:22:09;;;;;;;1.88;0.95;;;11.70;1.00;;;;;;5092830;28;20596;-58
2023/10/07 01:24:49;;;;;;;1.90;0.80;;;11.70;1.00;;;;;;5093037;28;20833;-57
2023/10/07 01:27:22;;;;;;;2.20;0.90;;;11.60;1.00;;;;;;5093272;28;20461;-57
2023/10/07 01:29:50;;;;;;;1.90;0.90;;;11.60;1.00;;;;;;5092974;28;20425;-58
2023/10/07 01:32:19;;;;;;;3.05;1.00;;;11.70;1.00;;;;;;5093808;28;20890;-58
2023/10/07 01:34:52;;;;;;;1.75;0.90;;;11.60;1.00;;;;;;5092820;28;20917;-57
2023/10/07 01:37:21;;;;;;;2.22;0.88;;;11.70;1.00;;;;;;5092760;28;20487;-56
2023/10/07 01:39:52;;;;;;;1.80;0.80;;;11.70;1.00;;;;;;5093007;28;20430;-58
2023/10/07 01:42:26;;;;;;;3.22;0.90;;;11.70;1.00;;;;;;5091712;28;20786;-57
2023/10/07 01:44:57;;;;;;;1.70;0.80;;;11.70;1.00;;;;;;5092100;28;20432;-57
2023/10/07 01:47:25;;;;;;;2.40;1.00;;;11.70;1.00;;;;;;5092441;28;20479;-57
2023/10/07 01:49:55;;;;;;;1.98;1.00;;;11.70;1.00;;;;;;5093443;28;20414;-57
2023/10/07 01:52:26;;;;;;;2.03;0.90;;;11.70;1.00;;;;;;5093982;28;20528;-57
2023/10/07 01:54:57;;;;;;;2.70;1.10;;;11.70;1.00;;;;;;5093993;28;20429;-57
2023/10/07 01:57:24;;;;;;;1.83;0.90;;;11.80;1.00;;;;;;5092650;28;20433;-57
2023/10/07 01:59:52;;;;;;;2.30;0.90;;;11.80;1.00;;;;;;5094282;28;20428;-58
2023/10/07 02:02:25;;;;;;;2.70;0.90;;;11.80;1.00;;;;;;5093072;28;20532;-58
2023/10/07 02:04:55;;;;;;;1.80;0.90;;;11.70;1.00;;;;;;5094256;28;20508;-57
2023/10/07 02:07:22;;;;;;;2.10;0.90;;;11.70;1.00;;;;;;5094685;28;20422;-58
2023/10/07 02:09:54;;;;;;;1.90;0.90;;;11.70;1.00;;;;;;5092821;28;20861;-57
2023/10/07 02:12:24;;;;;;;3.60;0.90;;;11.70;1.00;;;;;;5094047;28;20413;-58
2023/10/07 02:14:52;;;;;;;2.05;0.90;;;11.70;1.00;;;;;;5092062;28;20553;-55
2023/10/07 02:17:25;;;;;;;2.55;0.80;;;11.70;1.00;;;;;;5090666;28;20417;-58
2023/10/07 02:19:53;;;;;;;2.10;0.90;;;11.60;1.00;;;;;;5095550;28;20596;-58
2023/10/07 02:22:22;;;;;;;3.35;1.00;;;11.60;1.00;;;;;;5097689;28;20440;-56
2023/10/07 02:24:59;;;;;;;1.80;0.80;;;11.60;1.00;;;;;;5098296;28;20426;-58
2023/10/07 02:27:38;;;;;;;1.90;0.90;;;11.60;1.00;;;;;;5097927;28;20832;-57
2023/10/07 02:30:06;;;;;;;1.85;0.98;;;11.50;1.00;;;;;;5095563;28;20468;-58
2023/10/07 02:32:35;;;;;;;3.30;1.00;;;11.50;1.00;;;;;;5095873;28;20483;-58
2023/10/07 02:35:08;;;;;;;2.60;0.80;;;11.50;1.00;;;;;;5097530;28;20442;-57
2023/10/07 02:37:38;;;;;;;2.00;0.90;;;11.40;1.00;;;;;;5097773;28;20430;-58
2023/10/07 02:40:19;;;;;;;1.70;0.90;;;11.40;1.00;;;;;;5097629;28;20817;-58
2023/10/07 02:42:49;;;;;;;2.58;0.90;;;11.40;1.00;;;;;;5097348;28;20461;-54
2023/10/07 02:45:28;;;;;;;2.60;0.90;;;11.40;1.00;;;;;;5097533;28;20544;-57
2023/10/07 02:47:55;;;;;;;3.33;0.93;;;11.40;1.00;;;;;;5097404;28;20425;-57
2023/10/07 02:50:25;;;;;;;2.30;1.00;;;11.40;1.00;;;;;;5097379;28;20867;-57
2023/10/07 02:52:54;;;;;;;1.90;0.80;;;11.40;1.00;;;;;;5097683;28;20483;-58
2023/10/07 02:58:07;;;;;;;2.85;0.90;;;11.40;1.00;;;;;;5097055;28;20440;-58
2023/10/07 03:00:36;;;;;;;1.40;0.70;;;11.40;1.00;;;;;;5097247;28;20429;-57
2023/10/07 03:03:32;;;;;;;2.80;0.80;;;11.40;1.00;;;;;;5097384;28;20491;-58
2023/10/07 03:05:58;;;;;;;2.17;0.80;;;11.30;1.00;;;;;;5096809;28;20863;-57
2023/10/07 03:08:40;;;;;;;1.83;0.77;;;11.40;1.00;;;;;;5097038;28;20500;-57
2023/10/07 03:11:11;;;;;;;3.22;0.90;;;11.40;1.00;;;;;;5096567;28;20425;-57
2023/10/07 03:13:45;;;;;;;1.95;0.90;;;11.40;1.00;;;;;;5095961;28;20422;-58
2023/10/07 03:16:32;;;;;;;1.88;0.80;;;11.30;1.00;;;;;;5097264;28;20550;-58
2023/10/07 03:19:20;;;;;;;2.47;1.00;;;11.30;1.00;;;;;;5097053;28;20414;-57
2023/10/07 03:22:06;;;;;;;2.15;0.73;;;11.30;1.00;;;;;;5096374;28;20473;-59
2023/10/07 03:24:42;;;;;;;1.48;0.80;;;11.20;1.00;;;;;;5096570;28;20431;-58
2023/10/07 03:27:13;;;;;;;1.83;0.73;;;11.20;1.00;;;;;;5096360;28;20426;-58
2023/10/07 03:29:58;;;;;;;1.60;0.88;;;11.20;1.00;;;;;;5095016;28;21102;-58
2023/10/07 03:32:29;;;;;;;2.17;0.80;;;11.20;1.00;;;;;;5096044;28;20411;-58
2023/10/07 03:34:59;;;;;;;1.70;0.73;;;11.20;1.00;;;;;;5096729;28;20418;-59
2023/10/07 03:37:27;;;;;;;2.45;0.80;;;11.10;1.00;;;;;;5096853;28;20429;-58
2023/10/07 03:39:57;;;;;;;2.87;0.80;;;11.10;1.00;;;;;;5096921;28;20449;-58
2023/10/07 03:42:24;;;;;;;2.38;0.90;;;11.10;1.00;;;;;;5095975;28;20430;-58
2023/10/07 03:44:53;;;;;;;1.70;0.85;;;11.10;1.00;;;;;;5095553;28;20840;-59
2023/10/07 03:47:20;;;;;;;2.42;0.80;;;11.10;1.00;;;;;;5096870;28;20441;-58
2023/10/07 03:49:52;;;;;;;2.42;0.90;;;11.10;1.00;;;;;;5096280;28;20710;-58
2023/10/07 03:52:27;;;;;;;4.60;0.80;;;11.10;1.00;;;;;;5096289;28;20721;-58
2023/10/07 03:54:56;;;;;;;3.00;0.90;;;11.10;1.00;;;;;;5096116;28;20425;-58
2023/10/07 03:57:24;;;;;;;4.07;0.90;;;11.10;1.00;;;;;;5095211;28;20465;-59
2023/10/07 03:59:54;;;;;;;1.50;0.80;;;11.00;1.00;;;;;;5095057;28;20501;-59
2023/10/07 04:02:36;;;;;;;1.70;0.88;;;10.90;1.00;;;;;;5094295;28;20434;-59
2023/10/07 04:05:12;;;;;;;2.10;0.80;;;11.00;1.00;;;;;;5094682;28;20410;-59
2023/10/07 04:07:42;;;;;;;2.50;0.80;;;11.00;1.00;;;;;;5094453;28;21034;-58
2023/10/07 04:10:21;;;;;;;2.40;1.00;;;10.90;1.00;;;;;;5093850;28;20430;-59
2023/10/07 04:12:49;;;;;;;2.03;0.90;;;10.90;1.00;;;;;;5093913;28;20429;-57
2023/10/07 04:15:18;;;;;;;2.63;0.80;;;10.90;1.00;;;;;;5094279;28;20424;-60
2023/10/07 04:17:46;;;;;;;2.20;0.90;;;10.90;1.00;;;;;;5094675;28;20421;-58
2023/10/07 04:20:20;;;;;;;2.03;0.80;;;11.00;1.00;;;;;;5095710;28;20413;-58
2023/10/07 04:22:57;;;;;;;2.40;0.90;;;10.90;1.00;;;;;;5094888;28;20430;-58
2023/10/07 04:25:25;;;;;;;2.20;0.90;;;10.90;1.00;;;;;;5094572;28;20708;-58
2023/10/07 04:27:53;;;;;;;1.60;0.90;;;10.80;1.00;;;;;;5095451;28;20901;-59
2023/10/07 04:30:26;;;;;;;2.30;0.80;;;10.80;1.00;;;;;;5093826;28;20528;-58
2023/10/07 04:32:53;;;;;;;2.10;0.90;;;10.80;1.00;;;;;;5095492;28;20414;-57
2023/10/07 04:35:26;;;;;;;2.33;0.80;;;10.80;1.00;;;;;;5095646;28;20797;-56
2023/10/07 04:38:00;;;;;;;2.00;0.90;;;10.80;1.00;;;;;;5095165;28;20418;-58
2023/10/07 04:43:36;;;;;;;2.55;0.80;;;10.80;1.00;;;;;;5094875;28;20527;-57
2023/10/07 04:46:21;;;;;;;2.28;0.70;;;10.80;1.00;;;;;;5095507;28;20852;-58
2023/10/07 04:48:54;;;;;;;1.20;0.65;;;10.70;1.00;;;;;;5095448;28;20422;-57
2023/10/07 04:51:25;;;;;;;1.60;0.80;;;10.70;1.00;;;;;;5095492;28;20456;-57
2023/10/07 04:53:57;;;;;;;1.50;0.70;;;10.60;1.00;;;;;;5094143;28;20843;-58
2023/10/07 04:56:25;;;;;;;1.75;0.80;;;10.50;1.00;;;;;;5095152;28;20410;-54
2023/10/07 04:58:52;;;;;;;1.40;0.80;;;10.60;1.00;;;;;;5095227;28;20418;-58
2023/10/07 05:01:30;;;;;;;2.13;0.80;;;10.70;1.00;;;;;;5094857;28;20856;-58
2023/10/07 05:03:58;;;;;;;2.58;0.80;;;10.70;1.00;;;;;;5095118;28;20441;-58
2023/10/07 05:06:25;;;;;;;2.30;0.80;;;10.70;1.00;;;;;;5094925;28;20503;-57
2023/10/07 05:08:51;;;;;;;2.30;0.70;;;10.70;1.00;;;;;;5094625;28;20844;-58
2023/10/07 05:11:19;;;;;;;1.90;0.80;;;10.60;1.00;;;;;;5094033;28;20475;-57
2023/10/07 05:13:46;;;;;;;2.03;0.80;;;10.60;1.00;;;;;;5094734;28;20442;-58
2023/10/07 05:16:13;;;;;;;1.80;0.70;;;10.60;1.00;;;;;;5094442;28;20457;-57
2023/10/07 05:18:41;;;;;;;1.30;0.70;;;10.60;1.00;;;;;;5094748;28;20426;-58
2023/10/07 05:21:10;;;;;;;2.93;0.90;;;10.60;1.00;;;;;;5094989;28;20434;-58
2023/10/07 05:23:41;;;;;;;1.60;0.70;;;10.60;1.00;;;;;;5094105;28;20848;-59
2023/10/07 05:26:09;;;;;;;1.45;0.80;;;10.60;1.00;;;;;;5095074;28;20414;-58
2023/10/07 05:28:36;;;;;;;2.13;0.70;;;10.50;1.00;;;;;;5094811;28;20512;-59
2023/10/07 05:31:04;;;;;;;1.80;0.90;;;10.50;1.00;;;;;;5093397;28;20786;-58
2023/10/07 05:33:34;;;;;;;3.38;0.90;;;10.50;1.00;;;;;;5094751;28;20836;-59
2023/10/07 05:36:08;;;;;;;1.10;0.80;;;10.60;1.00;;;;;;5094536;28;20426;-59
2023/10/07 05:38:36;;;;;;;1.30;0.80;;;10.70;1.00;;;;;;5094668;28;20479;-60
2023/10/07 05:41:06;;;;;;;2.97;0.80;;;10.90;1.00;;;;;;5093444;28;20525;-59
2023/10/07 05:43:33;;;;;;;2.28;0.80;;;11.00;1.00;;;;;;5094914;28;20433;-59
2023/10/07 05:46:00;;;;;;;1.65;0.80;;;11.10;1.00;;;;;;5094512;28;20933;-59
2023/10/07 05:48:27;;;;;;;2.40;0.90;;;11.00;1.00;;;;;;5093400;28;20914;-60
2023/10/07 05:50:55;;;;;;;1.67;0.75;;;11.10;1.00;;;;;;5094698;28;20848;-60
2023/10/07 05:53:23;;;;;;;2.67;0.90;;;11.10;1.00;;;;;;5097086;28;20789;-58
2023/10/07 05:55:53;;;;;;;2.15;0.90;;;11.20;1.00;;;;;;5097911;28;20482;-59
2023/10/07 05:58:20;;;;;;;3.47;0.80;;;11.20;1.00;;;;;;5098518;28;20437;-59
2023/10/07 06:00:48;;;;;;;1.00;0.90;;;11.30;1.00;;;;;;5097026;28;20424;-58
2023/10/07 06:03:15;;;;;;;2.88;0.90;;;11.30;1.00;;;;;;5097589;28;20884;-56
2023/10/07 06:05:43;;;;;;;2.27;0.83;;;11.20;1.00;;;;;;5097930;28;20422;-58
2023/10/07 06:08:10;;;;;;;4.28;0.90;;;11.10;99.90;;;;;;5098148;28;20508;-58
2023/10/07 06:10:39;;;;;;;2.33;0.90;;;11.20;1.00;;;;;;5098139;28;20925;-58
2023/10/07 06:13:08;;;;;;;1.85;0.80;;;11.20;99.90;;;;;;5097178;28;20535;-59
2023/10/07 06:15:35;;;;;;;1.50;0.80;;;11.00;1.00;;;;;;5097734;28;20512;-56
2023/10/07 06:18:04;;;;;;;3.50;0.80;;;11.10;1.00;;;;;;5097262;28;20782;-57
2023/10/07 06:20:37;;;;;;;1.70;0.90;;;11.20;1.00;;;;;;5096852;28;20505;-58
2023/10/07 06:23:13;;;;;;;2.80;0.90;;;11.30;1.00;;;;;;5096047;28;20425;-59
2023/10/07 06:25:48;;;;;;;2.60;0.90;;;11.50;1.00;;;;;;5096280;28;20833;-58
2023/10/07 06:28:29;;;;;;;3.65;0.80;;;11.60;1.00;;;;;;5096805;28;20432;-58
2023/10/07 06:31:01;;;;;;;2.70;0.90;;;11.70;1.00;;;;;;5087683;28;20425;-57
2023/10/07 06:33:31;;;;;;;1.80;1.00;;;11.60;99.90;;;;;;5097427;28;20513;-58
2023/10/07 06:35:59;;;;;;;4.20;1.00;;;11.50;99.90;;;;;;5097539;28;20430;-58
2023/10/07 06:38:26;;;;;;;2.58;0.90;;;11.30;1.00;;;;;;5096786;28;20444;-58
2023/10/07 06:40:56;;;;;;;2.53;1.00;;;11.40;1.00;;;;;;5101207;28;20416;-58
2023/10/07 06:43:25;;;;;;;2.30;0.90;;;11.60;99.90;;;;;;5095349;28;20884;-57
2023/10/07 06:45:54;;;;;;;2.50;0.80;;;11.50;99.90;;;;;;5095017;28;20764;-56
2023/10/07 06:48:24;;;;;;;2.67;0.98;;;11.70;99.90;;;;;;5095786;28;20428;-55
2023/10/07 06:50:53;;;;;;;2.90;1.00;;;11.80;99.90;;;;;;5094384;28;20805;-55
2023/10/07 06:53:22;;;;;;;2.33;0.90;;;11.90;99.90;;;;;;5095168;28;20426;-57
2023/10/07 06:55:51;;;;;;;1.70;1.00;;;11.80;55.40;;;;;;5092909;28;21000;-58
2023/10/07 06:58:22;;;;;;;3.10;0.90;;;12.00;99.90;;;;;;5092419;28;20900;-57
2023/10/07 07:00:55;;;;;;;3.70;0.80;;;12.10;1.00;;;;;;5093433;28;20417;-58
2023/10/07 07:03:25;;;;;;;1.85;0.90;;;12.40;1.00;;;;;;5094166;28;20888;-56
2023/10/07 07:05:54;;;;;;;2.67;0.85;;;12.90;99.90;;;;;;5094404;28;20425;-58
2023/10/07 07:08:23;;;;;;;1.63;0.90;;;13.20;99.90;;;;;;5095981;28;20455;-59
2023/10/07 07:10:55;;;;;;;2.78;1.00;;;13.40;99.90;;;;;;5096701;28;20445;-59
2023/10/07 07:13:27;;;;;;;1.60;0.90;;;13.30;1.00;;;;;;5096912;28;20426;-59
2023/10/07 07:15:57;;;;;;;2.15;0.80;;;13.20;1.00;;;;;;5096590;28;20599;-59
2023/10/07 07:18:26;;;;;;;3.53;0.90;;;13.40;58.10;;;;;;5096728;28;20449;-59
2023/10/07 07:21:00;;;;;;;1.50;0.70;;;13.60;1.00;;;;;;5096171;28;20461;-59
2023/10/07 07:23:35;;;;;;;2.45;0.80;;;13.80;99.90;;;;;;5096167;28;20444;-59
2023/10/07 07:26:09;;;;;;;1.10;0.60;;;13.80;1.00;;;;;;5094848;28;20814;-60
2023/10/07 07:28:42;;;;;;;2.58;0.68;;;13.80;1.00;;;;;;5096075;28;20516;-59
2023/10/07 07:31:11;;;;;;;1.52;0.60;;;13.60;1.00;;;;;;5095955;28;20522;-59
2023/10/07 07:33:39;;;;;;;1.20;0.70;;;13.50;1.00;;;;;;5094790;28;20417;-59
2023/10/07 07:36:18;;;;;;;1.40;0.60;;;13.50;1.00;;;;;;5094187;28;20853;-59
2023/10/07 07:38:46;;;;;;;1.70;0.80;;;13.50;1.00;;;;;;5095980;28;20528;-59
2023/10/07 07:41:29;;;;;;;1.35;0.63;;;13.70;1.00;;;;;;5086047;28;20441;-58
2023/10/07 07:43:59;;;;;;;1.97;0.70;;;14.00;1.00;;;;;;5096049;28;20780;-59
2023/10/07 07:46:29;;;;;;;1.50;0.70;;;14.10;1.00;;;;;;5094783;28;20725;-59
2023/10/07 07:49:05;;;;;;;2.50;0.77;;;14.10;1.00;;;;;;5093773;28;20426;-58
2023/10/07 07:51:37;;;;;;;1.33;0.80;;;14.20;1.00;;;;;;5094493;28;20495;-59
2023/10/07 07:54:06;;;;;;;2.20;0.70;;;14.30;1.00;;;;;;5095813;28;20441;-58
2023/10/07 07:56:34;;;;;;;2.60;0.70;;;14.40;1.00;;;;;;5095986;28;20406;-58
2023/10/07 07:59:13;;;;;;;3.10;0.70;;;14.60;1.00;;;;;;5095405;28;20472;-54
2023/10/07 08:01:44;;;;;;;2.20;0.70;;;14.70;1.00;;;;;;5092816;28;20725;-55
2023/10/07 08:04:17;;;;;;;1.93;0.70;;;14.80;1.00;;;;;;5094883;28;20434;-57
2023/10/07 08:06:46;;;;;;;1.35;0.65;;;15.10;99.90;;;;;;5095157;28;20543;-58
2023/10/07 08:09:19;;;;;;;1.60;0.70;;;15.40;99.90;;;;;;5095459;28;20479;-54
2023/10/07 08:11:49;;;;;;;1.20;0.70;;;15.60;99.90;;;;;;5094384;28;20418;-58
2023/10/07 08:14:19;;;;;;;1.55;0.70;;;15.80;99.90;;;;;;5094067;28;20487;-57
2023/10/07 08:16:51;;;;;;;2.30;0.60;;;16.00;99.90;;;;;;5094510;28;20485;-55
2023/10/07 08:19:23;;;;;;;1.40;0.60;;;16.10;87.90;;;;;;5095512;28;20453;-54
2023/10/07 08:21:52;;;;;;;1.65;0.60;;;16.20;73.30;;;;;;5095331;28;20502;-56
2023/10/07 08:24:23;;;;;;;1.70;0.70;;;16.30;75.90;;;;;;5095390;28;20443;-57
2023/10/07 08:26:59;;;;;;;1.40;0.70;;;16.40;51.90;;;;;;5094442;28;20426;-58
2023/10/07 08:29:34;;;;;;;2.78;0.60;;;16.60;20.30;;;;;;5093965;28;20503;-57
2023/10/07 08:32:09;;;;;;;1.30;0.60;;;16.70;1.00;;;;;;5094534;28;21205;-58
2023/10/07 08:34:37;;;;;;;1.20;0.57;;;16.80;1.00;;;;;;5094638;28;20781;-56
2023/10/07 08:37:08;;;;;;;1.40;0.63;;;17.00;1.00;;;;;;5094169;28;20524;-60
2023/10/07 08:39:44;;;;;;;1.80;0.60;;;17.10;1.00;;;;;;5094824;28;20529;-56
2023/10/07 08:42:17;;;;;;;1.60;0.50;;;17.30;1.00;;;;;;5093555;28;20871;-58
2023/10/07 08:44:58;;;;;;;1.40;0.63;;;17.60;1.00;;;;;;5085598;28;20737;-57
2023/10/07 08:47:39;;;;;;;1.98;0.50;;;17.70;1.00;;;;;;5091875;28;20483;-58
2023/10/07 08:50:08;;;;;;;2.30;0.60;;;17.90;1.00;;;;;;5094735;28;20418;-56
2023/10/07 08:52:37;;;;;;;1.10;0.70;;;17.90;1.00;;;;;;5093854;28;20779;-58
2023/10/07 08:55:09;;;;;;;1.37;0.50;;;18.00;1.00;;;;;;5094093;28;20418;-58
2023/10/07 08:57:36;;;;;;;1.30;0.60;;;18.20;1.00;;;;;;5094497;28;20425;-58
2023/10/07 09:00:11;;;;;;;1.27;0.50;;;18.30;1.00;;;;;;5092356;28;20432;-58
2023/10/07 09:02:40;;;;;;;1.80;0.70;;;18.40;1.00;;;;;;5091126;28;20418;-57
2023/10/07 09:05:15;;;;;;;2.30;0.70;;;18.50;1.00;;;;;;5091779;28;20429;-56
2023/10/07 09:07:48;;;;;;;1.20;0.70;;;18.50;1.00;;;;;;5093506;28;20421;-57
2023/10/07 09:10:17;;;;;;;1.33;0.70;;;18.30;1.00;;;;;;5093019;28;20425;-57
2023/10/07 09:12:48;;;;;;;1.70;0.80;;;18.50;1.00;;;;;;5092295;28;20454;-57
2023/10/07 09:15:25;;;;;;;2.28;0.70;;;18.70;1.00;;;;;;5092426;28;20790;-58
2023/10/07 09:17:53;;;;;;;1.40;0.70;;;18.90;1.00;;;;;;5094214;28;20475;-58
2023/10/07 09:20:29;;;;;;;1.90;0.90;;;19.10;1.00;;;;;;5090550;28;20766;-58
2023/10/07 09:23:01;;;;;;;1.60;0.80;;;19.00;1.00;;;;;;5091446;28;20509;-56
2023/10/07 09:25:31;;;;;;;2.60;0.80;;;19.10;1.00;;;;;;5091954;28;20434;-57
2023/10/07 09:27:59;;;;;;;1.80;0.80;;;19.10;1.00;;;;;;5093606;28;20879;-57
2023/10/07 09:30:44;;;;;;;1.58;0.70;;;19.30;1.00;;;;;;5097724;28;20506;-58
2023/10/07 09:33:14;;;;;;;1.60;0.80;;;19.50;1.00;;;;;;5098214;28;20479;-57
2023/10/07 09:35:45;;;;;;;1.23;0.70;;;19.60;1.00;;;;;;5098188;28;20473;-58
2023/10/07 09:38:27;;;;;;;1.50;0.80;;;19.70;1.00;;;;;;5095613;28;20425;-58
2023/10/07 09:41:11;;;;;;;1.40;0.50;;;19.80;1.00;;;;;;5084211;28;21060;-56
2023/10/07 09:43:44;;;;;;;0.82;0.40;;;19.70;1.00;;;;;;5081122;28;20439;-58
2023/10/07 09:46:15;;;;;;;1.20;0.50;;;19.70;1.00;;;;;;5078562;28;20433;-58
2023/10/07 09:48:43;;;;;;;1.00;0.50;;;19.70;1.00;;;;;;5074374;28;20419;-56
2023/10/07 09:51:22;;;;;;;1.13;0.60;;;19.70;1.00;;;;;;5083167;28;20532;-58
2023/10/07 09:54:10;;;;;;;1.00;0.47;;;19.80;1.00;;;;;;5091571;28;20878;-58
2023/10/07 09:56:45;;;;;;;2.20;0.40;;;19.80;1.00;;;;;;5067542;28;20524;-58
2023/10/07 09:59:25;;;;;;;2.50;0.50;;;19.80;1.00;;;;;;5094135;28;20437;-58
2023/10/07 10:02:24;;;;;;;1.23;0.40;;;19.70;1.00;;;;;;5081056;28;20599;-56
2023/10/07 10:05:11;;;;;;;1.70;0.40;;;19.70;1.00;;;;;;5063130;28;20866;-58
2023/10/07 10:07:59;;;;;;;0.90;0.40;;;19.60;1.00;;;;;;5075584;28;20423;-58
2023/10/07 10:10:32;;;;;;;0.90;0.40;;;19.50;1.00;;;;;;5074297;28;20847;-58
2023/10/07 10:13:07;;;;;;;0.93;0.50;;;19.60;1.00;;;;;;5082991;28;20461;-59
2023/10/07 10:15:57;;;;;;;0.90;0.40;;;19.60;1.00;;;;;;5095173;28;20719;-56
2023/10/07 10:18:38;;;;;;;1.30;0.40;;;19.60;1.00;;;;;;5094598;28;20495;-59
2023/10/07 10:21:09;;;;;;;0.70;0.40;;;19.60;1.00;;;;;;5093632;28;20469;-56
2023/10/07 10:23:37;;;;;;;1.10;0.40;;;19.50;1.00;;;;;;5092611;28;20465;-57
2023/10/07 10:26:14;;;;;;;0.90;0.32;;;19.50;1.00;;;;;;5095900;28;20418;-59
2023/10/07 10:28:43;;;;;;;0.80;0.40;;;19.60;1.00;;;;;;5094367;28;20421;-56
2023/10/07 10:31:19;;;;;;;0.73;0.40;;;19.70;1.00;;;;;;5095260;28;20490;-57
2023/10/07 10:33:49;;;;;;;1.13;0.50;;;20.00;1.00;;;;;;5090445;28;20445;-56
2023/10/07 10:36:21;;;;;;;0.98;0.40;;;20.10;1.00;;;;;;5095281;28;20437;-57
2023/10/07 10:38:48;;;;;;;2.20;0.50;;;20.20;1.00;;;;;;5093987;28;20447;-58
2023/10/07 10:41:27;;;;;;;1.20;0.50;;;20.40;1.00;;;;;;5095981;28;20487;-58
2023/10/07 10:44:04;;;;;;;0.87;0.50;;;20.40;1.00;;;;;;5094060;28;20452;-58
2023/10/07 10:46:44;;;;;;;1.00;0.50;;;20.40;1.00;;;;;;5093558;28;20513;-58
2023/10/07 10:49:13;;;;;;;2.35;0.40;;;20.20;1.00;;;;;;5093331;28;20921;-60
2023/10/07 10:51:48;;;;;;;1.10;0.70;;;20.00;1.00;;;;;;5096400;28;20741;-57
2023/10/07 10:54:17;;;;;;;1.10;0.40;;;20.10;1.00;;;;;;5091641;28;20444;-56
2023/10/07 10:56:48;;;;;;;1.88;0.50;;;20.30;1.00;;;;;;5089321;28;20536;-59
2023/10/07 10:59:16;;;;;;;1.60;0.40;;;20.60;1.00;;;;;;5085468;28;20472;-58
2023/10/07 11:01:44;;;;;;;1.30;0.43;;;20.90;1.00;;;;;;5093154;28;20437;-57
2023/10/07 11:04:19;;;;;;;0.88;0.40;;;20.90;1.00;;;;;;5091808;28;20440;-59
2023/10/07 11:06:50;;;;;;;2.40;0.43;;;20.80;1.00;;;;;;5094805;28;20441;-57
2023/10/07 11:09:26;;;;;;;0.90;0.50;;;20.90;1.00;;;;;;5094451;28;20834;-55
2023/10/07 11:11:57;;;;;;;0.90;0.40;;;20.90;1.00;;;;;;5094641;28;20429;-58
2023/10/07 11:14:24;;;;;;;1.77;0.40;;;20.80;1.00;;;;;;5091198;28;20745;-58
2023/10/07 11:16:52;;;;;;;1.55;0.40;;;20.60;1.00;;;;;;5094062;28;20553;-57
2023/10/07 11:19:21;;;;;;;1.60;0.50;;;20.30;1.00;;;;;;5092970;28;20444;-57
2023/10/07 11:21:49;;;;;;;0.90;0.40;;;20.20;1.00;;;;;;5095253;28;20869;-57
2023/10/07 11:24:25;;;;;;;0.90;0.40;;;20.30;1.00;;;;;;5092997;28;20483;-56
2023/10/07 11:26:56;;;;;;;1.17;0.40;;;20.40;1.00;;;;;;5091562;28;20501;-54
2023/10/07 11:29:29;;;;;;;1.40;0.50;;;20.50;1.00;;;;;;5084805;28;20425;-57
2023/10/07 11:32:04;;;;;;;1.08;0.47;;;20.50;1.00;;;;;;5095515;28;20772;-57
2023/10/07 11:34:39;;;;;;;0.90;0.40;;;20.50;1.00;;;;;;5093274;28;20480;-55
2023/10/07 11:37:11;;;;;;;1.00;0.50;;;20.30;1.00;;;;;;5094061;28;20475;-56
2023/10/07 11:39:43;;;;;;;1.13;0.40;;;20.10;1.00;;;;;;5089580;28;20445;-56
2023/10/07 11:42:14;;;;;;;1.33;0.40;;;20.00;1.00;;;;;;5091017;28;20510;-54
2023/10/07 11:44:42;;;;;;;1.33;0.50;;;20.20;1.00;;;;;;5094406;28;20429;-56
2023/10/07 11:47:10;;;;;;;0.90;0.40;;;20.20;1.00;;;;;;5090718;28;20842;-59
2023/10/07 11:49:39;;;;;;;1.70;0.40;;;20.20;1.00;;;;;;5095341;28;20430;-59
2023/10/07 11:52:06;;;;;;;1.25;0.50;;;20.20;1.00;;;;;;5091640;28;20437;-59
2023/10/07 11:54:35;;;;;;;1.40;0.50;;;20.10;1.00;;;;;;5094094;28;20490;-59
2023/10/07 11:57:05;;;;;;;2.23;0.50;;;20.20;1.00;;;;;;5094120;28;20464;-57
2023/10/07 11:59:33;;;;;;;1.00;0.40;;;20.30;1.00;;;;;;5091867;28;20445;-57
2023/10/07 12:02:01;;;;;;;0.80;0.50;;;20.20;1.00;;;;;;5090677;28;20546;-57
2023/10/07 12:04:28;;;;;;;0.90;0.40;;;20.10;1.00;;;;;;5089171;28;20737;-58
2023/10/07 12:06:56;;;;;;;0.90;0.50;;;20.10;1.00;;;;;;5090903;28;20445;-59
2023/10/07 12:09:24;;;;;;;0.90;0.50;;;20.10;1.00;;;;;;5093281;28;20514;-58
2023/10/07 12:11:53;;;;;;;1.00;0.50;;;20.10;1.00;;;;;;5091353;28;20714;-59
2023/10/07 12:14:22;;;;;;;1.10;0.45;;;20.10;1.00;;;;;;5089561;28;20429;-58
2023/10/07 12:16:49;;;;;;;1.00;0.50;;;20.20;1.00;;;;;;5082965;28;20448;-57
2023/10/07 12:19:17;;;;;;;0.90;0.50;;;20.30;1.00;;;;;;5092247;28;20522;-58
2023/10/07 12:21:49;;;;;;;1.00;0.50;;;20.40;1.00;;;;;;5092222;28;20487;-58
2023/10/07 12:24:17;;;;;;;0.88;0.40;;;20.40;1.00;;;;;;5093508;28;20432;-58
2023/10/07 12:26:50;;;;;;;1.00;0.50;;;20.50;1.00;;;;;;5091757;28;20864;-58
2023/10/07 12:29:18;;;;;;;1.60;0.50;;;20.50;1.00;;;;;;5088671;28;20441;-57
2023/10/07 12:31:47;;;;;;;1.00;0.50;;;20.50;1.00;;;;;;5092698;28;20524;-58
2023/10/07 12:34:16;;;;;;;1.35;0.50;;;20.50;1.00;;;;;;5091815;28;20426;-59
2023/10/07 12:36:43;;;;;;;1.13;0.50;;;20.50;1.00;;;;;;5088510;28;20446;-58
2023/10/07 12:39:11;;;;;;;0.90;0.50;;;20.60;1.00;;;;;;5087489;28;20438;-58
2023/10/07 12:41:40;;;;;;;1.08;0.50;;;20.50;1.00;;;;;;5088094;28;20442;-58
2023/10/07 12:44:09;;;;;;;1.15;0.50;;;20.60;1.00;;;;;;5085877;28;20723;-59
2023/10/07 12:46:38;;;;;;;1.20;0.60;;;20.70;1.00;;;;;;5091358;28;20444;-58
2023/10/07 12:49:09;;;;;;;1.60;0.50;;;20.60;1.00;;;;;;5074111;28;20566;-59
2023/10/07 12:51:38;;;;;;;0.80;0.50;;;20.70;1.00;;;;;;5086442;28;20823;-57
2023/10/07 12:54:08;;;;;;;0.93;0.50;;;20.70;1.00;;;;;;5090900;28;20872;-57
2023/10/07 12:56:36;;;;;;;1.30;0.50;;;20.90;1.00;;;;;;5090122;28;20437;-59
2023/10/07 12:59:17;;;;;;;1.20;0.50;;;21.10;1.00;;;;;;5085437;28;20446;-56
2023/10/07 13:01:45;;;;;;;1.95;0.50;;;21.20;1.00;;;;;;5070294;28;20478;-56
2023/10/07 13:04:12;;;;;;;1.30;0.60;;;21.10;1.00;;;;;;5078447;28;20854;-55
2023/10/07 13:06:42;;;;;;;1.33;0.50;;;21.10;1.00;;;;;;5073263;28;20758;-55
2023/10/07 13:09:16;;;;;;;2.00;0.50;;;21.00;1.00;;;;;;5091642;28;20432;-55
2023/10/07 13:11:43;;;;;;;2.10;0.50;;;21.00;1.00;;;;;;5093536;28;20448;-56
2023/10/07 13:14:12;;;;;;;1.10;0.50;;;21.10;1.00;;;;;;5094292;28;20475;-54
2023/10/07 13:16:40;;;;;;;1.30;0.50;;;21.00;1.00;;;;;;5092103;28;20421;-55
2023/10/07 13:19:07;;;;;;;0.80;0.50;;;20.90;1.00;;;;;;5089690;28;20433;-55
2023/10/07 13:21:34;;;;;;;0.93;0.50;;;20.80;1.00;;;;;;5091404;28;20429;-54
2023/10/07 13:24:04;;;;;;;0.90;0.60;;;20.80;1.00;;;;;;5092855;28;20712;-57
2023/10/07 13:26:31;;;;;;;1.10;0.60;;;20.90;1.00;;;;;;5085567;28;20469;-56